Latest Weather Observations for Mortlake

IDV60801

Issued at 4:52 pm EDT Friday 16 November 2018 (issued every 10 minutes, with the page automatically refreshed every 10 minutes)

About weather observations | Map of weather stations | Latest weather observations for VIC | Other Formats
Station Details ID: 090176 Name: MORTLAKE RACECOURSE Lat: -38.07 Lon: 142.77 Height: 130.0 m
Data from the previous 72 hours. | See also: Recent months at Mortlake
Date/Time
EDT
Temp
°C
App
Temp
°C
Dew
Point
°C
Rel
Hum
%
Delta-T
°C
Wind Press
QNH
hPa
Press
MSL
hPa
Rain since
9am
mm
Dir  Spd
km/h
Gust
km/h
Spd
kts
Gust
kts
16/04:30pm 17.6 12.8 4.6 42 6.2 SW 19 28 10 15 1021.0 1021.0 0.0
16/04:00pm 18.0 12.6 4.6 41 6.4 SSW 22 32 12 17 1020.9 1020.9 0.0
16/03:30pm 17.2 12.2 3.5 40 6.4 SSW 19 28 10 15 1021.1 1021.1 0.0
16/03:00pm 18.0 12.7 5.2 43 6.2 SSW 22 33 12 18 1021.2 1021.2 0.0
16/02:30pm 18.4 13.2 5.6 43 6.3 SSW 22 32 12 17 1021.1 1021.1 0.0
16/02:00pm 18.5 13.0 6.0 44 6.2 S 24 35 13 19 1020.9 1020.9 0.0
16/01:30pm 18.9 14.9 5.0 40 6.8 SW 15 30 8 16 1020.8 1020.7 0.0
16/01:00pm 18.5 13.6 3.9 38 6.9 SW 19 28 10 15 1021.0 1021.0 0.0
16/12:30pm 18.3 13.7 3.8 38 6.9 SW 17 32 9 17 1021.2 1021.2 0.0
16/12:00pm 18.1 14.4 4.3 40 6.6 SSW 13 24 7 13 1021.4 1021.4 0.0
16/11:30am 17.4 13.6 3.7 40 6.4 SSW 13 22 7 12 1021.5 1021.5 0.0
16/11:00am 16.4 13.2 2.8 40 6.2 S 9 17 5 9 1021.6 1021.6 0.0
16/10:30am 16.2 13.5 2.6 40 6.2 E 6 9 3 5 1021.5 1021.5 0.0
16/10:00am 15.9 13.5 5.2 49 5.1 ENE 7 13 4 7 1021.9 1021.8 0.0
16/09:30am 13.8 11.0 7.1 64 3.3 NE 11 15 6 8 1021.9 1021.8 0.0
16/09:00am 12.2 9.9 8.9 80 1.7 NNE 11 15 6 8 1022.2 1022.1 0.0
16/08:30am 8.7 7.7 8.7 100 0.0 N 4 6 2 3 1022.5 1022.4 0.0
16/08:00am 7.1 5.7 7.1 100 0.0 WNW 4 6 2 3 1022.5 1022.4 0.0
16/07:30am 5.0 3.1 5.0 100 0.0 NW 4 6 2 3 1022.2 1022.1 0.0
16/07:00am 2.4 -0.3 2.4 100 0.0 WNW 6 7 3 4 1022.1 1022.0 0.0
16/06:30am 1.2 -1.4 1.2 100 0.0 NW 4 9 2 5 1021.4 1021.4 0.0
16/06:00am 3.2 1.0 3.2 100 0.0 NE 4 7 2 4 1021.4 1021.4 0.0
16/05:30am 2.2 -0.6 2.2 100 0.0 NNE 6 6 3 3 1021.5 1021.5 0.0
16/05:00am 1.4 -1.1 1.4 100 0.0 NNE 4 6 2 3 1021.7 1021.7 0.0
16/04:30am 2.5 -0.2 2.5 100 0.0 NNE 6 6 3 3 1022.1 1022.0 0.0
16/04:00am 3.0 0.2 3.0 100 0.0 NE 7 7 4 4 1022.1 1022.0 0.0
16/03:30am 1.2 -1.8 0.9 98 0.1 NW 6 6 3 3 1022.8 1022.7 0.0
16/03:00am 2.7 0.0 2.4 98 0.1 WNW 6 7 3 4 1022.8 1022.7 0.0
16/02:30am 3.7 1.9 3.3 97 0.2 N 2 4 1 2 1022.9 1022.8 0.0
16/02:00am 4.1 1.6 3.5 96 0.2 N 6 6 3 3 1022.9 1022.8 0.0
16/01:30am 4.9 2.5 4.2 95 0.3 NE 6 9 3 5 1023.2 1023.1 0.0
16/01:00am 5.0 3.7 4.0 93 0.4 CALM 0 4 0 2 1023.9 1023.8 0.0
16/12:30am 5.9 4.3 4.7 92 0.5 E 2 6 1 3 1023.8 1023.7 0.0
16/12:00am 5.9 3.3 4.4 90 0.6 ESE 7 9 4 5 1024.1 1024.0 0.0
 
Date/Time
EDT
Temp
°C
App
Temp
°C
Dew
Point
°C
Rel
Hum
%
Delta-T
°C
Wind Press
QNH
hPa
Press
MSL
hPa
Rain since
9am
mm
Dir  Spd
km/h
Gust
km/h
Spd
kts
Gust
kts
15/11:30pm 6.7 3.8 4.9 88 0.8 SE 9 11 5 6 1024.5 1024.4 0.0
15/11:00pm 7.5 5.1 5.3 86 1.0 SSE 7 7 4 4 1025.2 1025.1 0.0
15/10:30pm 8.0 4.9 5.5 84 1.1 SE 11 13 6 7 1024.9 1024.8 0.0
15/10:00pm 9.4 7.3 6.8 84 1.2 S 7 9 4 5 1025.4 1025.3 0.0
15/09:30pm 8.3 5.3 5.8 84 1.1 SSE 11 13 6 7 1025.1 1025.0 0.0
15/09:00pm 8.9 5.7 5.1 77 1.7 SSE 11 15 6 8 1024.8 1024.7 0.0
15/08:30pm 10.6 6.7 5.4 70 2.4 S 15 19 8 10 1024.6 1024.5 0.0
15/08:00pm 12.5 8.6 5.4 62 3.3 S 15 20 8 11 1024.5 1024.4 0.0
15/07:30pm 14.1 9.9 5.7 57 4.0 S 17 22 9 12 1024.1 1024.0 0.0
15/07:00pm 15.0 10.8 5.8 54 4.4 S 17 24 9 13 1024.0 1023.9 0.0
15/06:30pm 15.6 11.5 6.3 54 4.5 SSE 17 22 9 12 1023.6 1023.5 0.0
15/06:00pm 16.0 12.0 6.7 54 4.6 SSE 17 24 9 13 1023.4 1023.3 0.0
15/05:30pm 16.2 12.5 6.3 52 4.9 S 15 26 8 14 1023.4 1023.3 0.0
15/05:00pm 16.5 13.1 6.1 50 5.1 SSE 13 22 7 12 1023.5 1023.4 0.0
15/04:30pm 17.1 13.2 5.4 46 5.7 S 15 28 8 15 1023.6 1023.5 0.0
15/04:00pm 17.1 12.8 5.4 46 5.6 SSE 17 24 9 13 1023.9 1023.8 0.0
15/03:30pm 17.4 13.4 5.0 44 6.0 SSE 15 20 8 11 1024.0 1023.9 0.0
15/03:00pm 18.2 14.5 6.1 45 6.0 SSE 15 24 8 13 1024.2 1024.1 0.0
15/02:30pm 17.4 14.2 5.0 44 6.0 SSW 11 19 6 10 1024.5 1024.4 0.0
15/02:00pm 16.5 12.3 5.5 48 5.3 S 17 26 9 14 1024.7 1024.6 0.0
15/01:30pm 17.5 14.6 6.7 49 5.4 SSE 11 20 6 11 1024.7 1024.6 0.0
15/01:00pm 15.8 11.3 6.3 53 4.6 S 19 28 10 15 1024.9 1024.8 0.0
15/12:30pm 15.6 11.2 6.6 55 4.4 S 19 22 10 12 1025.1 1025.0 0.0
15/12:00pm 14.6 11.5 7.2 61 3.6 S 13 22 7 12 1025.3 1025.2 0.0
15/11:30am 14.6 11.5 7.4 62 3.6 SSE 13 20 7 11 1025.3 1025.2 0.0
15/11:00am 13.5 10.5 7.9 69 2.8 SSE 13 20 7 11 1025.3 1025.2 0.0
15/10:30am 13.1 9.7 7.5 69 2.8 S 15 22 8 12 1025.2 1025.1 0.0
15/10:00am 14.8 11.8 7.8 63 3.5 SSE 13 20 7 11 1024.8 1024.7 0.0
15/09:30am 13.6 11.3 7.6 67 3.0 S 9 20 5 11 1025.0 1024.9 0.0
15/09:00am 13.5 11.9 8.6 72 2.5 S 7 17 4 9 1024.6 1024.5 0.2
15/08:30am 12.3 11.9 12.3 100 0.0 SSE 6 11 3 6 1024.5 1024.4 0.2
15/08:00am 10.4 9.4 10.4 100 0.0 WSW 6 9 3 5 1024.2 1024.1 0.2
15/07:30am 9.8 9.8 9.8 100 0.0 CALM 0 0 0 0 1023.4 1023.3 0.2
15/07:00am 8.3 7.5 8.3 100 0.0 NW 2 4 1 2 1022.9 1022.8 0.2
15/06:30am 6.1 4.4 6.1 100 0.0 NW 4 4 2 2 1022.6 1022.5 0.2
15/06:00am 5.6 3.8 5.6 100 0.0 NW 4 4 2 2 1022.2 1022.1 0.2
15/05:30am 5.6 4.6 5.6 100 0.0 CALM 0 0 0 0 1022.0 1021.9 0.2
15/05:00am 6.9 6.2 6.9 100 0.0 CALM 0 0 0 0 1021.5 1021.5 0.2
15/04:30am 7.3 6.7 7.3 100 0.0 CALM 0 0 0 0 1021.3 1021.3 0.2
15/04:00am 7.9 6.7 7.9 100 0.0 W 4 4 2 2 1021.4 1021.4 0.0
15/03:30am 8.9 7.5 8.9 100 0.0 W 6 7 3 4 1021.3 1021.3 0.0
15/03:00am 10.1 9.0 10.1 100 0.0 W 6 7 3 4 1021.2 1021.2 0.0
15/02:30am 10.4 10.5 10.1 98 0.2 CALM 0 0 0 0 1020.9 1020.9 0.0
15/02:00am 10.3 9.5 9.7 96 0.3 SW 4 6 2 3 1021.2 1021.2 0.0
15/01:30am 10.5 10.1 9.6 94 0.5 SW 2 4 1 2 1021.2 1021.2 0.0
15/01:00am 10.8 9.6 9.6 92 0.6 SSW 6 7 3 4 1021.3 1021.3 0.0
15/12:30am 10.9 8.9 8.5 85 1.2 SSW 9 13 5 7 1021.1 1021.1 0.0
15/12:00am 11.5 8.6 8.2 80 1.6 SSW 13 20 7 11 1020.7 1020.6 0.0
 
Date/Time
EDT
Temp
°C
App
Temp
°C
Dew
Point
°C
Rel
Hum
%
Delta-T
°C
Wind Press
QNH
hPa
Press
MSL
hPa
Rain since
9am
mm
Dir  Spd
km/h
Gust
km/h
Spd
kts
Gust
kts
14/11:30pm 11.8 9.3 8.3 79 1.7 SSW 11 17 6 9 1020.6 1020.5 0.0
14/11:00pm 12.2 8.8 9.0 81 1.6 SSW 17 20 9 11 1020.4 1020.3 0.0
14/10:30pm 12.0 10.2 9.6 85 1.2 SSW 9 15 5 8 1020.2 1020.1 0.0
14/10:00pm 12.1 10.1 10.0 87 1.1 SSW 11 17 6 9 1019.9 1019.8 0.0
14/09:30pm 11.5 10.1 9.4 87 1.1 SSW 7 9 4 5 1019.6 1019.5 0.0
14/09:00pm 11.2 9.9 9.1 87 1.1 SSW 6 7 3 4 1019.1 1019.0 0.0
14/08:30pm 11.2 8.6 7.9 80 1.6 SSW 11 13 6 7 1018.7 1018.6 0.0
14/08:00pm 13.7 9.8 8.7 72 2.5 SSW 19 24 10 13 1018.6 1018.5 0.0
14/07:30pm 14.2 11.6 10.6 79 1.9 SSW 15 22 8 12 1018.1 1018.0 0.0
14/07:00pm 14.4 11.0 10.6 78 2.0 SSW 19 24 10 13 1017.6 1017.5 0.0
14/06:30pm 15.3 11.4 10.9 75 2.4 SSW 22 30 12 16 1017.1 1017.0 0.0
14/06:00pm 15.6 11.8 11.0 74 2.5 SSW 22 32 12 17 1016.9 1016.8 0.0
14/05:30pm 16.2 12.8 11.4 73 2.6 SSW 20 28 11 15 1016.6 1016.5 0.0
14/05:00pm 16.8 13.7 11.7 72 2.8 SSW 19 28 10 15 1016.4 1016.3 0.0
14/04:30pm 16.9 14.0 12.4 75 2.5 SSW 19 26 10 14 1016.3 1016.2 0.0
14/04:00pm 16.8 14.9 12.9 78 2.2 SSW 15 20 8 11 1016.3 1016.2 0.0
14/03:30pm 15.5 13.4 12.4 82 1.7 SW 15 20 8 11 1016.3 1016.2 0.0
14/03:00pm 15.3 12.2 12.2 82 1.7 SW 20 26 11 14 1016.4 1016.3 0.0
14/02:30pm 17.1 14.5 12.0 72 2.8 SW 17 24 9 13 1016.2 1016.1 0.0
14/02:00pm 16.8 13.7 11.7 72 2.8 SW 19 28 10 15 1016.1 1016.0 0.0
14/01:30pm 17.4 15.5 11.7 69 3.1 SW 13 19 7 10 1015.7 1015.6 0.0
14/01:00pm 17.1 14.8 10.5 65 3.5 WSW 13 20 7 11 1015.7 1015.6 0.0
14/12:30pm 16.4 14.2 10.7 69 3.1 WSW 13 20 7 11 1015.9 1015.8 0.0
14/12:00pm 16.0 13.7 10.3 69 3.0 WSW 13 22 7 12 1015.9 1015.8 0.0
14/11:30am 15.5 13.8 11.1 75 2.4 W 11 20 6 11 1015.8 1015.7 0.0
14/11:00am 14.8 12.9 10.6 76 2.2 WSW 11 20 6 11 1015.8 1015.7 0.0
14/10:30am 14.1 12.0 11.3 83 1.5 WSW 13 20 7 11 1015.9 1015.8 0.0
14/10:00am 13.9 12.7 11.6 86 1.2 W 9 17 5 9 1015.8 1015.7 0.0
14/09:30am 13.4 12.1 12.6 95 0.4 WSW 11 17 6 9 1016.0 1015.9 0.0
14/09:00am 13.1 12.4 13.1 100 0.0 WSW 9 15 5 8 1015.7 1015.6 0.4
14/08:30am 12.7 11.8 12.7 100 0.0 WSW 9 13 5 7 1015.5 1015.4 0.4
14/08:00am 12.5 12.1 12.5 100 0.0 W 6 11 3 6 1015.2 1015.1 0.4
14/07:30am 12.3 11.9 12.3 100 0.0 WNW 6 7 3 4 1014.9 1014.8 0.4
14/07:00am 12.0 11.5 12.0 100 0.0 NW 6 7 3 4 1014.7 1014.6 0.4
14/06:30am 11.9 11.7 11.9 100 0.0 WSW 4 6 2 3 1014.5 1014.4 0.4
14/06:00am 11.7 11.1 11.7 100 0.0 SW 6 7 3 4 1014.2 1014.0 0.4
14/05:30am 11.5 10.8 11.5 100 0.0 SW 6 9 3 5 1014.0 1013.8 0.4
14/05:00am 11.6 10.4 11.6 100 0.0 SW 9 11 5 6 1013.7 1013.6 0.4
14/04:30am 11.7 10.1 11.7 100 0.0 SSW 11 13 6 7 1013.5 1013.4 0.4
14/04:00am 11.8 9.9 11.8 100 0.0 SW 13 17 7 9 1013.3 1013.2 0.4
14/03:30am 12.0 10.9 12.0 100 0.0 SW 9 13 5 7 1013.1 1013.0 0.4
14/03:00am 12.1 10.3 12.1 100 0.0 SW 13 17 7 9 1013.2 1013.1 0.4
14/02:30am 12.5 11.2 12.5 100 0.0 SW 11 17 6 9 1013.3 1013.2 0.4
14/02:00am 12.6 11.7 12.6 100 0.0 SSW 9 13 5 7 1013.6 1013.5 0.4
14/01:30am 12.9 12.7 12.9 100 0.0 SSW 6 7 3 4 1013.7 1013.6 0.4
14/01:00am 12.9 12.5 12.9 100 0.0 SSW 7 11 4 6 1014.0 1013.8 0.4
14/12:30am 13.1 12.7 13.1 100 0.0 SSW 7 11 4 6 1014.0 1013.8 0.2
14/12:00am 13.5 12.5 13.5 100 0.0 SW 11 15 6 8 1013.7 1013.6 0.2
 
Date/Time
EDT
Temp
°C
App
Temp
°C
Dew
Point
°C
Rel
Hum
%
Delta-T
°C
Wind Press
QNH
hPa
Press
MSL
hPa
Rain since
9am
mm
Dir  Spd
km/h
Gust
km/h
Spd
kts
Gust
kts
13/11:30pm 13.4 12.0 13.4 100 0.0 SW 13 19 7 10 1013.7 1013.6 0.2
13/11:00pm 13.7 12.0 13.7 100 0.0 SW 15 22 8 12 1013.3 1013.2 0.0
13/10:30pm 13.9 13.1 13.9 100 0.0 WSW 11 15 6 8 1013.1 1013.0 0.0
13/10:00pm 13.9 12.7 13.9 100 0.0 SW 13 19 7 10 1012.6 1012.5 0.0
13/09:30pm 14.0 12.4 14.0 100 0.0 SW 15 22 8 12 1012.3 1012.2 0.0
13/09:00pm 14.1 12.9 14.1 100 0.0 SW 13 17 7 9 1012.1 1012.0 0.0
13/08:30pm 14.2 13.1 14.2 100 0.0 SSW 13 19 7 10 1012.0 1011.9 0.0
13/08:00pm 14.6 13.1 14.3 98 0.2 SW 15 20 8 11 1011.9 1011.8 0.0
13/07:30pm 15.1 14.0 14.3 95 0.5 SW 13 17 7 9 1011.7 1011.6 0.0
13/07:00pm 15.1 14.7 14.0 93 0.6 SSW 9 13 5 7 1011.2 1011.1 0.0
13/06:30pm 15.6 13.7 14.1 91 0.9 SSW 17 24 9 13 1010.6 1010.5 0.0
13/06:00pm 15.7 12.5 14.2 91 0.9 SW 24 33 13 18 1010.4 1010.3 0.0
13/05:30pm 16.1 13.2 14.1 88 1.1 SW 22 32 12 17 1009.9 1009.8 0.0
13/05:00pm 16.2 13.5 14.6 90 0.9 SSW 22 30 12 16 1009.4 1009.3 0.0

Other Formats:

Comma delimited format used in spreadsheet applications
http://www.bom.gov.au/fwo/IDV60801/IDV60801.94840.axf

JavaScript Object Notation format (JSON) in row-major order
http://www.bom.gov.au/fwo/IDV60801/IDV60801.94840.json